Time;durP1;ratioP1;P1;durP2;ratioP2;P2;SDS_P1;SDS_P2;PMS_P1;PMS_P2;Temp;Humidity;BMP_temperature;BMP_pressure;BME280_temperature;BME280_humidity;BME280_pressure;Samples;Min_cycle;Max_cycle;Signal;HPM_P1;HPM_P2
2023/07/06 00:00:38;;;;;;;1999.90;999.90;;;16.30;99.90;;;;;;4949269;29;20442;-72
2023/07/06 00:03:05;;;;;;;1999.90;999.90;;;16.20;99.90;;;;;;4934976;29;20455;-70
2023/07/06 00:05:31;;;;;;;1999.90;999.90;;;16.20;99.90;;;;;;4937925;29;20885;-72
2023/07/06 00:08:01;;;;;;;1999.90;999.90;;;16.20;99.90;;;;;;4941605;29;20443;-73
2023/07/06 00:10:27;;;;;;;1999.90;999.90;;;16.10;99.90;;;;;;4946173;28;20818;-71
2023/07/06 00:12:57;;;;;;;1999.90;999.90;;;16.10;99.90;;;;;;4945054;28;20476;-70
2023/07/06 00:15:24;;;;;;;1999.90;999.90;;;16.30;99.90;;;;;;4943229;29;20447;-71
2023/07/06 00:17:50;;;;;;;1999.90;999.90;;;16.20;99.90;;;;;;4935902;29;20451;-71
2023/07/06 00:20:17;;;;;;;1999.90;999.90;;;16.20;99.90;;;;;;4945054;29;20995;-72
2023/07/06 00:22:44;;;;;;;1999.90;999.90;;;16.10;99.90;;;;;;4944741;29;20453;-70
2023/07/06 00:25:12;;;;;;;1999.90;999.90;;;16.10;99.90;;;;;;4946444;29;20537;-73
2023/07/06 00:27:40;;;;;;;1999.90;999.90;;;16.00;99.90;;;;;;4950364;29;20501;-72
2023/07/06 00:30:18;;;;;;;1999.90;999.90;;;15.90;99.90;;;;;;4936827;29;20435;-72
2023/07/06 00:32:47;;;;;;;1999.90;999.90;;;15.90;99.90;;;;;;4940162;29;20437;-72
2023/07/06 00:35:15;;;;;;;1999.90;999.90;;;15.80;99.90;;;;;;4949748;29;20445;-71
2023/07/06 00:37:42;;;;;;;1999.90;999.90;;;15.90;99.90;;;;;;4946191;29;20449;-72
2023/07/06 00:40:14;;;;;;;1999.90;999.90;;;15.80;99.90;;;;;;4940845;29;20439;-72
2023/07/06 00:42:41;;;;;;;1999.90;999.90;;;15.90;99.90;;;;;;4937945;29;20443;-72
2023/07/06 00:45:10;;;;;;;1999.90;999.90;;;15.80;99.90;;;;;;4943635;29;20447;-74
2023/07/06 00:47:43;;;;;;;1999.90;999.90;;;15.80;99.90;;;;;;4939415;29;20814;-71
2023/07/06 00:50:12;;;;;;;1999.90;999.90;;;15.80;99.90;;;;;;4937156;28;20814;-72
2023/07/06 00:52:43;;;;;;;1999.90;999.90;;;15.80;99.90;;;;;;4938692;29;20433;-72
2023/07/06 00:55:12;;;;;;;1999.90;999.90;;;15.90;99.90;;;;;;4940752;29;20848;-72
2023/07/06 00:57:41;;;;;;;1999.90;999.90;;;15.80;99.90;;;;;;4941517;29;20506;-72
2023/07/06 01:00:11;;;;;;;1999.90;999.90;;;15.90;99.90;;;;;;4942377;28;20516;-72
2023/07/06 01:02:41;;;;;;;1999.90;999.90;;;16.00;99.90;;;;;;4944055;29;20441;-70
2023/07/06 01:05:10;;;;;;;1999.90;999.90;;;16.10;99.90;;;;;;4945709;29;20926;-72
2023/07/06 01:07:40;;;;;;;1999.90;999.90;;;16.20;99.90;;;;;;4937385;29;20451;-72
2023/07/06 01:10:08;;;;;;;1999.90;999.90;;;16.30;99.90;;;;;;4939917;28;20467;-72
2023/07/06 01:12:36;;;;;;;1999.90;999.90;;;16.40;99.90;;;;;;4938321;29;20454;-71
2023/07/06 01:15:06;;;;;;;1999.90;999.90;;;16.50;99.90;;;;;;4942934;29;20929;-72
2023/07/06 01:17:40;;;;;;;1999.90;999.90;;;16.50;99.90;;;;;;4945695;29;20438;-72
2023/07/06 01:20:20;;;;;;;1999.90;999.90;;;16.50;99.90;;;;;;4947314;29;20433;-72
2023/07/06 01:23:35;;;;;;;1999.90;999.90;;;16.60;99.90;;;;;;4943228;29;20447;-72
2023/07/06 01:26:32;;;;;;;1999.90;999.90;;;16.50;99.90;;;;;;4936983;29;20437;-70
2023/07/06 01:29:33;;;;;;;1999.90;999.90;;;16.50;99.90;;;;;;4946585;29;20473;-72
2023/07/06 01:32:02;;;;;;;1999.90;999.90;;;16.50;99.90;;;;;;4943786;29;20978;-72
2023/07/06 01:34:36;;;;;;;1999.90;999.90;;;16.40;99.90;;;;;;4936351;29;20522;-72
2023/07/06 01:37:08;;;;;;;1999.90;999.90;;;16.30;99.90;;;;;;4942869;29;20500;-72
2023/07/06 01:39:35;;;;;;;1999.90;999.90;;;16.40;99.90;;;;;;4942785;29;20516;-72
2023/07/06 01:42:27;;;;;;;1999.90;999.90;;;16.50;99.90;;;;;;4943533;29;21174;-71
2023/07/06 01:44:56;;;;;;;1999.90;999.90;;;16.50;99.90;;;;;;4943691;29;20469;-72
2023/07/06 01:47:26;;;;;;;1999.90;999.90;;;16.50;99.90;;;;;;4949651;29;20443;-72
2023/07/06 01:49:53;;;;;;;1999.90;999.90;;;16.50;99.90;;;;;;4940262;29;20442;-70
2023/07/06 01:52:29;;;;;;;1999.90;999.90;;;16.50;99.90;;;;;;4944411;29;20437;-70
2023/07/06 01:55:02;;;;;;;1999.90;999.90;;;16.50;99.90;;;;;;4941804;29;20494;-72
2023/07/06 01:57:34;;;;;;;1999.90;999.90;;;16.40;99.90;;;;;;4945620;29;20881;-71
2023/07/06 02:00:08;;;;;;;1999.90;999.90;;;16.80;99.90;;;;;;4950536;29;20492;-72
2023/07/06 02:02:37;;;;;;;1999.90;999.90;;;16.50;99.90;;;;;;4936697;29;20447;-71
2023/07/06 02:05:05;;;;;;;1999.90;999.90;;;16.60;99.90;;;;;;4939959;29;20443;-72
2023/07/06 02:07:33;;;;;;;1999.90;999.90;;;16.60;99.90;;;;;;4944058;29;20445;-70
2023/07/06 02:09:59;;;;;;;1999.90;999.90;;;16.50;99.90;;;;;;4952083;29;20540;-71
2023/07/06 02:12:26;;;;;;;1999.90;999.90;;;16.60;99.90;;;;;;4951719;29;20437;-71
2023/07/06 02:14:53;;;;;;;1999.90;999.90;;;16.60;99.90;;;;;;4938957;29;21017;-71
2023/07/06 02:17:20;;;;;;;1999.90;999.90;;;16.70;99.90;;;;;;4940269;29;20434;-71
2023/07/06 02:19:49;;;;;;;1999.90;999.90;;;16.70;99.90;;;;;;4941376;29;20993;-71
2023/07/06 02:22:17;;;;;;;1999.90;999.90;;;16.60;99.90;;;;;;4947064;29;20453;-71
2023/07/06 02:24:44;;;;;;;1999.90;999.90;;;16.60;99.90;;;;;;4949482;29;20939;-71
2023/07/06 02:27:11;;;;;;;1999.90;999.90;;;16.60;99.90;;;;;;4950298;29;20437;-72
2023/07/06 02:29:39;;;;;;;1999.90;999.90;;;16.50;99.90;;;;;;4937492;29;20477;-72
2023/07/06 02:32:09;;;;;;;1999.90;999.90;;;16.40;99.90;;;;;;4942858;29;20449;-72
2023/07/06 02:34:36;;;;;;;1999.90;999.90;;;16.40;99.90;;;;;;4944234;29;20441;-71
2023/07/06 02:37:04;;;;;;;1999.90;999.90;;;16.30;99.90;;;;;;4946769;29;20441;-71
2023/07/06 02:39:31;;;;;;;1999.90;999.90;;;16.30;99.90;;;;;;4951495;29;20532;-69
2023/07/06 02:41:58;;;;;;;1999.90;999.90;;;16.30;99.90;;;;;;4944820;29;20492;-72
2023/07/06 02:44:25;;;;;;;1999.90;999.90;;;16.30;99.90;;;;;;4941640;29;20512;-72
2023/07/06 02:46:52;;;;;;;1999.90;999.90;;;16.20;99.90;;;;;;4943744;29;20491;-68
2023/07/06 02:49:19;;;;;;;1999.90;999.90;;;16.10;99.90;;;;;;4947737;29;20449;-70
2023/07/06 02:51:46;;;;;;;1999.90;999.90;;;16.10;99.90;;;;;;4950524;29;20493;-72
2023/07/06 02:54:15;;;;;;;1999.90;999.90;;;16.00;99.90;;;;;;4948023;29;20526;-69
2023/07/06 02:56:42;;;;;;;1999.90;999.90;;;16.00;99.90;;;;;;4943034;29;20964;-72
2023/07/06 02:59:09;;;;;;;1999.90;999.90;;;15.90;99.90;;;;;;4940815;29;20570;-72
2023/07/06 03:01:36;;;;;;;1999.90;999.90;;;15.90;99.90;;;;;;4945940;29;20437;-71
2023/07/06 03:04:10;;;;;;;1999.90;999.90;;;15.90;99.90;;;;;;4946167;29;20505;-73
2023/07/06 03:06:37;;;;;;;1999.90;999.90;;;15.90;99.90;;;;;;4950112;29;20443;-71
2023/07/06 03:09:05;;;;;;;1999.90;999.90;;;15.90;99.90;;;;;;4943176;28;20446;-72
2023/07/06 03:11:33;;;;;;;1999.90;999.90;;;15.80;99.90;;;;;;4939654;29;20920;-71
2023/07/06 03:14:02;;;;;;;1999.90;999.90;;;15.70;99.90;;;;;;4944289;29;20562;-71
2023/07/06 03:16:29;;;;;;;1999.90;999.90;;;15.70;99.90;;;;;;4943454;29;20465;-72
2023/07/06 03:18:55;;;;;;;1999.90;999.90;;;15.70;99.90;;;;;;4942999;29;20439;-72
2023/07/06 03:21:22;;;;;;;1999.90;999.90;;;15.80;99.90;;;;;;4942268;29;20488;-71
2023/07/06 03:23:50;;;;;;;1999.90;999.90;;;15.70;99.90;;;;;;4942186;29;20530;-71
2023/07/06 03:26:16;;;;;;;1999.90;999.90;;;15.80;99.90;;;;;;4943066;29;20518;-71
2023/07/06 03:28:45;;;;;;;1999.90;999.90;;;15.70;99.90;;;;;;4949168;29;20492;-74
2023/07/06 03:31:14;;;;;;;1999.90;999.90;;;15.60;99.90;;;;;;4948138;29;20450;-71
2023/07/06 03:33:41;;;;;;;1999.90;999.90;;;15.60;99.90;;;;;;4946024;29;20531;-71
2023/07/06 03:36:08;;;;;;;1999.90;999.90;;;15.50;99.90;;;;;;4942602;29;20441;-71
2023/07/06 03:38:35;;;;;;;1999.90;999.90;;;15.40;99.90;;;;;;4941338;29;20445;-72
2023/07/06 03:41:03;;;;;;;1999.90;999.90;;;15.50;99.90;;;;;;4944868;29;20499;-72
2023/07/06 03:43:31;;;;;;;1999.90;999.90;;;15.50;99.90;;;;;;4940758;29;21007;-72
2023/07/06 03:45:59;;;;;;;1999.90;999.90;;;15.40;99.90;;;;;;4950810;29;20939;-72
2023/07/06 03:48:26;;;;;;;1999.90;999.90;;;15.60;99.90;;;;;;4942337;29;20472;-72
2023/07/06 03:50:53;;;;;;;1999.90;999.90;;;15.60;99.90;;;;;;4938782;29;20436;-71
2023/07/06 03:53:21;;;;;;;1999.90;999.90;;;15.60;99.90;;;;;;4938635;29;20443;-71
2023/07/06 03:55:48;;;;;;;1999.90;999.90;;;15.70;99.90;;;;;;4943951;29;20525;-76
2023/07/06 03:58:15;;;;;;;1999.90;999.90;;;16.00;99.90;;;;;;4948869;29;20444;-72
2023/07/06 04:00:41;;;;;;;1999.90;999.90;;;15.60;99.90;;;;;;4940582;29;20816;-72
2023/07/06 04:03:09;;;;;;;1999.90;999.90;;;15.40;99.90;;;;;;4936884;29;20447;-70
2023/07/06 04:05:39;;;;;;;1999.90;999.90;;;15.20;99.90;;;;;;4942205;29;20450;-72
2023/07/06 04:08:11;;;;;;;1999.90;999.90;;;15.20;99.90;;;;;;4945036;29;21015;-70
2023/07/06 04:10:39;;;;;;;1999.90;999.90;;;15.30;99.90;;;;;;4942096;29;20442;-72
2023/07/06 04:13:06;;;;;;;1999.90;999.90;;;15.20;99.90;;;;;;4949043;29;20916;-71
2023/07/06 04:15:34;;;;;;;1999.90;999.90;;;15.20;99.90;;;;;;4936374;29;20844;-72
2023/07/06 04:18:00;;;;;;;1999.90;999.90;;;15.20;99.90;;;;;;4942017;29;20442;-70
2023/07/06 04:20:30;;;;;;;1999.90;999.90;;;15.30;99.90;;;;;;4945503;29;20546;-71
2023/07/06 04:22:58;;;;;;;1999.90;999.90;;;15.30;99.90;;;;;;4945733;29;20474;-69
2023/07/06 04:25:29;;;;;;;1999.90;999.90;;;15.40;99.90;;;;;;4941610;29;20450;-72
2023/07/06 04:27:56;;;;;;;1999.90;999.90;;;15.40;99.90;;;;;;4934646;29;20495;-71
2023/07/06 04:30:23;;;;;;;1999.90;999.90;;;15.40;99.90;;;;;;4943804;29;20434;-70
2023/07/06 04:32:50;;;;;;;1999.90;999.90;;;15.30;99.90;;;;;;4942367;29;20441;-71
2023/07/06 04:35:19;;;;;;;1999.90;999.90;;;15.30;99.90;;;;;;4947095;29;20447;-70
2023/07/06 04:37:48;;;;;;;1999.90;999.90;;;15.80;99.90;;;;;;4947100;29;20449;-72
2023/07/06 04:40:18;;;;;;;1999.90;999.90;;;16.50;99.90;;;;;;4937102;29;20443;-71
2023/07/06 04:42:46;;;;;;;1999.90;999.90;;;17.10;99.90;;;;;;4944402;29;20588;-70
2023/07/06 04:45:13;;;;;;;1999.90;999.90;;;17.60;99.90;;;;;;4936931;28;20439;-71
2023/07/06 04:47:40;;;;;;;1999.90;999.90;;;17.60;99.90;;;;;;4943894;28;20445;-70
2023/07/06 04:50:08;;;;;;;1999.90;999.90;;;18.00;99.90;;;;;;4949755;29;20496;-71
2023/07/06 04:52:37;;;;;;;1999.90;999.90;;;18.50;99.90;;;;;;4934686;29;20928;-72
2023/07/06 04:55:06;;;;;;;1999.90;999.90;;;18.80;99.90;;;;;;4937530;29;20520;-70
2023/07/06 04:57:33;;;;;;;1999.90;999.90;;;18.90;99.90;;;;;;4941308;29;20945;-71
2023/07/06 05:00:11;;;;;;;1999.90;999.90;;;19.20;99.90;;;;;;4947579;29;20437;-71
2023/07/06 05:02:38;;;;;;;1999.90;999.90;;;19.60;99.90;;;;;;4939658;29;21029;-73
2023/07/06 05:05:05;;;;;;;1999.90;999.90;;;19.30;99.90;;;;;;4934754;29;20451;-72
2023/07/06 05:07:32;;;;;;;1999.90;999.90;;;19.40;99.90;;;;;;4944998;29;21053;-71
2023/07/06 05:09:59;;;;;;;1999.90;999.90;;;19.70;99.90;;;;;;4942276;29;20438;-72
2023/07/06 05:12:27;;;;;;;1999.90;999.90;;;19.70;99.90;;;;;;4946722;29;20443;-72
2023/07/06 05:14:53;;;;;;;1999.90;999.90;;;19.90;99.90;;;;;;4940184;29;20442;-71
2023/07/06 05:17:20;;;;;;;1999.90;999.90;;;20.10;99.90;;;;;;4944433;29;20512;-72
2023/07/06 05:19:47;;;;;;;1999.90;999.90;;;20.20;99.90;;;;;;4938283;29;20439;-71
2023/07/06 05:22:18;;;;;;;1999.90;999.90;;;20.10;99.90;;;;;;4943698;29;20555;-71
2023/07/06 05:24:45;;;;;;;1999.90;999.90;;;20.30;99.90;;;;;;4948897;29;20485;-72
2023/07/06 05:27:12;;;;;;;1999.90;999.90;;;20.10;99.90;;;;;;4943323;29;20435;-72
2023/07/06 05:29:40;;;;;;;1999.90;999.90;;;20.20;99.90;;;;;;4937921;29;20433;-72
2023/07/06 05:32:09;;;;;;;1999.90;999.90;;;20.50;99.90;;;;;;4942992;29;20492;-72
2023/07/06 05:34:36;;;;;;;1999.90;999.90;;;20.10;99.90;;;;;;4946526;29;20496;-71
2023/07/06 05:37:03;;;;;;;1999.90;999.90;;;19.70;99.90;;;;;;4942126;29;20859;-72
2023/07/06 05:39:30;;;;;;;1999.90;999.90;;;19.70;99.90;;;;;;4940650;29;20441;-71
2023/07/06 05:41:57;;;;;;;1999.90;999.90;;;19.70;99.90;;;;;;4944733;29;20438;-71
2023/07/06 05:44:25;;;;;;;1999.90;999.90;;;19.80;99.90;;;;;;4943650;29;20443;-71
2023/07/06 05:46:52;;;;;;;1999.90;999.90;;;20.20;99.90;;;;;;4949007;29;20441;-71
2023/07/06 05:49:19;;;;;;;1999.90;999.90;;;20.30;99.90;;;;;;4935700;29;20506;-72
2023/07/06 05:51:46;;;;;;;1999.90;999.90;;;20.40;99.90;;;;;;4942361;29;20430;-72
2023/07/06 05:54:12;;;;;;;1999.90;999.90;;;20.60;99.90;;;;;;4937891;29;20989;-71
2023/07/06 05:56:40;;;;;;;1999.90;999.90;;;20.30;99.90;;;;;;4940087;29;20928;-72
2023/07/06 05:59:08;;;;;;;1999.90;999.90;;;20.20;99.90;;;;;;4942495;29;20495;-72
2023/07/06 06:01:36;;;;;;;1999.90;999.90;;;20.10;99.90;;;;;;4934569;29;20441;-72
2023/07/06 06:04:04;;;;;;;1999.90;999.90;;;20.20;99.90;;;;;;4941465;29;20512;-71
2023/07/06 06:06:47;;;;;;;1999.90;999.90;;;20.40;99.90;;;;;;4938969;29;20869;-72
2023/07/06 06:09:13;;;;;;;1999.90;999.90;;;20.30;99.90;;;;;;4945420;29;20537;-71
2023/07/06 06:11:40;;;;;;;1999.90;999.90;;;19.80;99.90;;;;;;4938352;29;20433;-71
2023/07/06 06:14:07;;;;;;;1999.90;999.90;;;19.80;99.90;;;;;;4941467;28;20437;-72
2023/07/06 06:16:34;;;;;;;1999.90;999.90;;;19.80;99.90;;;;;;4944153;29;20501;-72
2023/07/06 06:19:01;;;;;;;1999.90;999.90;;;19.40;99.90;;;;;;4943841;29;20504;-72
2023/07/06 06:21:30;;;;;;;1999.90;999.90;;;19.30;99.90;;;;;;4944640;29;20457;-72
2023/07/06 06:23:57;;;;;;;1999.90;999.90;;;19.00;99.90;;;;;;4934939;29;20526;-72
2023/07/06 06:26:24;;;;;;;1999.90;999.90;;;19.30;99.90;;;;;;4937938;28;20439;-72
2023/07/06 06:28:50;;;;;;;1999.90;999.90;;;19.50;99.90;;;;;;4941197;29;20444;-71
2023/07/06 06:31:17;;;;;;;1999.90;999.90;;;19.50;99.90;;;;;;4943344;29;20502;-71
2023/07/06 06:33:45;;;;;;;1999.90;999.90;;;19.50;99.90;;;;;;4944930;29;20526;-72
2023/07/06 06:36:13;;;;;;;1999.90;999.90;;;19.70;99.90;;;;;;4946298;29;20443;-71
2023/07/06 06:38:41;;;;;;;1999.90;999.90;;;19.80;99.90;;;;;;4940218;29;20441;-70
2023/07/06 06:41:10;;;;;;;1999.90;999.90;;;19.90;99.90;;;;;;4951023;29;20460;-72
2023/07/06 06:43:38;;;;;;;1999.90;999.90;;;20.20;99.90;;;;;;4937390;29;20444;-72
2023/07/06 06:46:05;;;;;;;1999.90;999.90;;;20.30;99.90;;;;;;4946021;29;20939;-74
2023/07/06 06:48:32;;;;;;;1999.90;999.90;;;20.30;99.90;;;;;;4946436;29;20808;-71
2023/07/06 06:50:59;;;;;;;1999.90;999.90;;;20.50;99.90;;;;;;4939424;29;20433;-72
2023/07/06 06:53:26;;;;;;;1999.90;999.90;;;20.50;99.90;;;;;;4943931;29;20443;-75
2023/07/06 06:55:54;;;;;;;1999.90;999.90;;;20.40;99.90;;;;;;4940250;29;20926;-71
2023/07/06 06:58:22;;;;;;;1999.90;999.90;;;20.60;99.90;;;;;;4941653;29;20902;-74
2023/07/06 07:00:49;;;;;;;1999.90;999.90;;;20.30;99.90;;;;;;4937867;29;20692;-73
2023/07/06 07:03:16;;;;;;;1999.90;999.90;;;20.50;99.90;;;;;;4946899;29;20437;-71
2023/07/06 07:05:42;;;;;;;1999.90;999.90;;;20.60;99.90;;;;;;4954685;29;20425;-73
2023/07/06 07:08:09;;;;;;;1999.90;999.90;;;20.80;99.90;;;;;;4954234;29;20457;-71
2023/07/06 07:10:35;;;;;;;1999.90;999.90;;;20.80;99.90;;;;;;4954657;29;20477;-71
2023/07/06 07:13:03;;;;;;;1999.90;999.90;;;20.70;99.90;;;;;;4951888;29;20442;-71
2023/07/06 07:15:30;;;;;;;1999.90;999.90;;;20.70;99.90;;;;;;4954365;29;20521;-71
2023/07/06 07:17:59;;;;;;;1999.90;999.90;;;20.70;99.90;;;;;;4954282;29;20459;-71
2023/07/06 07:20:26;;;;;;;1999.90;999.90;;;20.80;99.90;;;;;;4954345;29;20429;-72
2023/07/06 07:22:54;;;;;;;1999.90;999.90;;;21.20;99.90;;;;;;4951845;29;21011;-68
2023/07/06 07:25:21;;;;;;;1999.90;999.90;;;21.00;99.90;;;;;;4953781;29;20460;-74
2023/07/06 07:27:48;;;;;;;1999.90;999.90;;;21.10;99.90;;;;;;4954022;29;20861;-74
2023/07/06 07:30:16;;;;;;;1999.90;999.90;;;21.20;99.90;;;;;;4954010;29;20468;-74
2023/07/06 07:32:42;;;;;;;1999.90;999.90;;;21.10;99.90;;;;;;4952153;29;20496;-74
2023/07/06 07:35:09;;;;;;;1999.90;999.90;;;21.10;99.90;;;;;;4948349;29;20441;-73
2023/07/06 07:37:36;;;;;;;1999.90;999.90;;;21.10;99.90;;;;;;4954099;29;20812;-71
2023/07/06 07:40:05;;;;;;;1999.90;999.90;;;21.30;99.90;;;;;;4953969;29;20944;-71
2023/07/06 07:42:31;;;;;;;1999.90;999.90;;;21.80;99.90;;;;;;4953364;29;20442;-70
2023/07/06 07:44:58;;;;;;;1999.90;999.90;;;22.00;99.30;;;;;;4950969;28;20441;-71
2023/07/06 07:47:27;;;;;;;1999.90;999.90;;;22.00;99.30;;;;;;4934614;29;20447;-71
2023/07/06 07:49:54;;;;;;;1999.90;999.90;;;22.20;98.90;;;;;;4936794;29;20435;-70
2023/07/06 07:52:21;;;;;;;1999.90;999.90;;;21.80;99.60;;;;;;4938269;29;20442;-68
2023/07/06 07:54:48;;;;;;;1999.90;999.90;;;22.00;99.90;;;;;;4943262;29;20480;-69
2023/07/06 07:57:15;;;;;;;1999.90;999.90;;;22.10;99.20;;;;;;4947585;29;20805;-70
2023/07/06 07:59:41;;;;;;;1999.90;999.90;;;22.30;98.10;;;;;;4952928;29;20434;-72
2023/07/06 08:02:08;;;;;;;1999.90;999.90;;;22.60;98.00;;;;;;4949273;29;20500;-71
2023/07/06 08:04:36;;;;;;;1999.90;999.90;;;22.90;96.90;;;;;;4950090;29;20445;-71
2023/07/06 08:07:04;;;;;;;1999.90;999.90;;;23.10;96.00;;;;;;4953216;29;20453;-70
2023/07/06 08:09:31;;;;;;;1999.90;999.90;;;22.90;95.50;;;;;;4951547;29;20880;-71
2023/07/06 08:11:58;;;;;;;1999.90;999.90;;;22.70;95.80;;;;;;4953135;29;20941;-72
2023/07/06 08:14:36;;;;;;;1999.90;999.90;;;22.60;95.90;;;;;;4944777;29;20455;-72
2023/07/06 08:17:04;;;;;;;1999.90;999.90;;;22.50;95.80;;;;;;4947757;29;20513;-73
2023/07/06 08:19:32;;;;;;;1999.90;999.90;;;22.50;95.90;;;;;;4949366;29;20481;-73
2023/07/06 08:22:00;;;;;;;1999.90;999.90;;;22.10;96.50;;;;;;4940166;29;20443;-70
2023/07/06 08:24:27;;;;;;;1999.90;999.90;;;22.40;96.20;;;;;;4933996;29;20447;-71
2023/07/06 08:26:54;;;;;;;1999.90;999.90;;;22.70;96.50;;;;;;4936809;29;20924;-69
2023/07/06 08:29:22;;;;;;;1999.90;999.90;;;22.80;96.30;;;;;;4945405;29;20863;-68
2023/07/06 08:31:49;;;;;;;1999.90;999.90;;;22.80;95.70;;;;;;4943556;29;20433;-71
2023/07/06 08:34:16;;;;;;;1999.90;999.90;;;22.90;96.20;;;;;;4948066;29;20437;-70
2023/07/06 08:36:43;;;;;;;1999.90;999.90;;;23.20;96.60;;;;;;4935093;29;20489;-71
2023/07/06 08:39:11;;;;;;;1999.90;999.90;;;23.30;96.00;;;;;;4940743;29;20443;-71
2023/07/06 08:41:40;;;;;;;1999.90;999.90;;;23.60;95.20;;;;;;4938680;29;20494;-71
2023/07/06 08:44:11;;;;;;;1999.90;999.90;;;22.90;94.70;;;;;;4935968;29;20449;-71
2023/07/06 08:46:41;;;;;;;1999.90;999.90;;;22.90;95.40;;;;;;4945544;29;20447;-71
2023/07/06 08:49:18;;;;;;;1999.90;999.90;;;23.00;95.80;;;;;;4938549;29;20522;-71
2023/07/06 08:51:45;;;;;;;1999.90;999.90;;;22.60;96.10;;;;;;4943322;29;20437;-72
2023/07/06 08:54:21;;;;;;;1999.90;999.90;;;22.00;96.70;;;;;;4940061;29;20490;-70
2023/07/06 08:56:49;;;;;;;1999.90;999.90;;;21.60;97.10;;;;;;4932417;29;21198;-71
2023/07/06 08:59:19;;;;;;;1999.90;999.90;;;21.40;97.30;;;;;;4936749;29;20446;-70
2023/07/06 09:01:47;;;;;;;1999.90;999.90;;;21.50;97.30;;;;;;4940902;29;20437;-71
2023/07/06 09:04:16;;;;;;;1999.90;999.90;;;21.70;97.80;;;;;;4940042;29;20446;-69
2023/07/06 09:06:48;;;;;;;1999.90;999.90;;;22.40;97.20;;;;;;4950887;29;20476;-69
2023/07/06 09:09:16;;;;;;;1999.90;999.90;;;22.80;95.70;;;;;;4952710;29;20480;-70
2023/07/06 09:11:46;;;;;;;1999.90;999.90;;;23.00;93.70;;;;;;4952390;29;20429;-71
2023/07/06 09:14:16;;;;;;;1999.90;999.90;;;22.70;94.20;;;;;;4945451;29;20963;-71
2023/07/06 09:16:49;;;;;;;1999.90;999.90;;;22.80;94.40;;;;;;4945486;29;20525;-70
2023/07/06 09:19:17;;;;;;;1999.90;999.90;;;22.60;94.60;;;;;;4944049;29;20441;-69
2023/07/06 09:21:47;;;;;;;1999.90;999.90;;;22.70;94.70;;;;;;4943693;29;20445;-69
2023/07/06 09:24:14;;;;;;;1999.90;999.90;;;22.60;94.20;;;;;;4939421;29;20523;-71
2023/07/06 09:26:45;;;;;;;1999.90;999.90;;;22.30;94.80;;;;;;4941215;29;20893;-71
2023/07/06 09:29:15;;;;;;;1999.90;999.90;;;21.80;94.80;;;;;;4944210;29;20446;-72
2023/07/06 09:31:43;;;;;;;1999.90;999.90;;;21.90;95.00;;;;;;4948655;29;20475;-69
2023/07/06 09:34:25;;;;;;;1999.90;999.90;;;22.20;95.00;;;;;;4943330;29;20489;-69
2023/07/06 09:36:51;;;;;;;1999.90;999.90;;;22.20;95.10;;;;;;4945612;29;20438;-69
2023/07/06 09:39:18;;;;;;;1999.90;999.90;;;22.60;95.20;;;;;;4938354;29;20438;-67
2023/07/06 09:41:47;;;;;;;1999.90;999.90;;;23.00;94.60;;;;;;4939797;29;20451;-69
2023/07/06 09:44:17;;;;;;;1999.90;999.90;;;23.70;93.10;;;;;;4941543;29;20926;-72
2023/07/06 09:46:44;;;;;;;1999.90;999.90;;;23.90;93.00;;;;;;4937261;29;20453;-72
2023/07/06 09:49:17;;;;;;;1999.90;999.90;;;24.30;92.40;;;;;;4939036;29;20449;-71
2023/07/06 09:51:50;;;;;;;1999.90;999.90;;;24.40;91.70;;;;;;4941134;29;20516;-71
2023/07/06 09:54:19;;;;;;;1999.90;999.90;;;24.30;91.00;;;;;;4944596;29;20448;-69
2023/07/06 09:56:48;;;;;;;1999.90;999.90;;;23.60;92.20;;;;;;4942480;29;20469;-69
2023/07/06 09:59:15;;;;;;;1999.90;999.90;;;23.20;92.60;;;;;;4937396;29;20854;-69
2023/07/06 10:01:48;;;;;;;1999.90;999.90;;;23.30;93.30;;;;;;4938417;29;20826;-69
2023/07/06 10:04:36;;;;;;;1999.90;999.90;;;23.70;92.90;;;;;;4942593;29;20472;-70
2023/07/06 10:07:12;;;;;;;1999.90;999.90;;;23.40;92.60;;;;;;4940701;28;20566;-70
2023/07/06 10:09:42;;;;;;;1999.90;999.90;;;23.20;92.80;;;;;;4941896;29;20999;-69
2023/07/06 10:12:19;;;;;;;1999.90;999.90;;;22.90;93.70;;;;;;4950948;29;20441;-69
2023/07/06 10:14:50;;;;;;;1999.90;999.90;;;22.50;95.00;;;;;;4954817;29;20421;-70
2023/07/06 10:17:34;;;;;;;1999.90;999.90;;;22.80;94.80;;;;;;4955530;29;20421;-70
2023/07/06 10:20:05;;;;;;;1999.90;999.90;;;23.30;92.90;;;;;;4949171;29;20537;-70
2023/07/06 10:22:40;;;;;;;1999.90;999.90;;;23.70;93.30;;;;;;4954952;29;20444;-69
2023/07/06 10:25:19;;;;;;;1999.90;999.90;;;24.20;90.60;;;;;;4954709;29;20429;-70
2023/07/06 10:27:57;;;;;;;1999.90;999.90;;;24.70;90.10;;;;;;4955056;29;20422;-71
2023/07/06 10:30:31;;;;;;;1999.90;999.90;;;25.50;89.40;;;;;;4941534;29;20510;-71
2023/07/06 10:32:59;;;;;;;1999.90;999.90;;;25.40;85.40;;;;;;4941678;29;20438;-71
2023/07/06 10:35:31;;;;;;;1999.90;999.90;;;25.10;88.70;;;;;;4940338;29;20986;-70
2023/07/06 10:37:58;;;;;;;1999.90;999.90;;;24.50;89.00;;;;;;4938457;29;20445;-71
2023/07/06 10:40:26;;;;;;;1999.90;999.90;;;24.20;90.20;;;;;;4943134;29;20924;-70
2023/07/06 10:43:20;;;;;;;1999.90;999.90;;;24.10;91.00;;;;;;4941146;29;20438;-72
2023/07/06 10:45:48;;;;;;;1999.90;999.90;;;23.80;91.30;;;;;;4944319;29;20435;-69
2023/07/06 10:48:26;;;;;;;1999.90;999.90;;;23.60;92.10;;;;;;4951058;29;20912;-70
2023/07/06 10:51:16;;;;;;;1999.90;999.90;;;23.20;92.90;;;;;;4937473;29;20445;-70
2023/07/06 10:53:45;;;;;;;1999.90;999.90;;;23.00;93.60;;;;;;4947120;29;20860;-69
2023/07/06 10:56:17;;;;;;;1999.90;999.90;;;22.70;93.10;;;;;;4953086;29;20433;-69
2023/07/06 10:58:55;;;;;;;1999.90;999.90;;;22.50;93.70;;;;;;4953551;29;20434;-70
2023/07/06 11:01:28;;;;;;;1999.90;999.90;;;22.50;94.00;;;;;;4954731;29;20908;-69
2023/07/06 11:03:55;;;;;;;1999.90;999.90;;;22.50;94.20;;;;;;4953963;29;20485;-69
2023/07/06 11:06:52;;;;;;;1999.90;999.90;;;22.50;92.90;;;;;;4954652;29;20457;-69
2023/07/06 11:09:19;;;;;;;1999.90;999.90;;;22.60;92.10;;;;;;4946568;29;20922;-70
2023/07/06 11:12:05;;;;;;;1999.90;999.90;;;23.30;91.30;;;;;;4953398;29;20496;-71
2023/07/06 11:14:39;;;;;;;1999.90;999.90;;;24.00;88.60;;;;;;4953869;29;20418;-71
2023/07/06 11:17:21;;;;;;;1999.90;999.90;;;23.90;87.60;;;;;;4950661;29;20429;-68
2023/07/06 11:19:53;;;;;;;1999.90;999.90;;;23.20;88.60;;;;;;4944174;28;20934;-69
2023/07/06 11:22:23;;;;;;;1999.90;999.90;;;23.30;90.40;;;;;;4942053;29;20987;-69
2023/07/06 11:24:54;;;;;;;1999.90;999.90;;;23.70;90.20;;;;;;4949588;29;20457;-69
2023/07/06 11:27:24;;;;;;;1999.90;999.90;;;23.70;90.50;;;;;;4939269;29;20469;-69
2023/07/06 11:29:55;;;;;;;1999.90;999.90;;;23.70;90.90;;;;;;4943241;29;20505;-70
2023/07/06 11:32:31;;;;;;;1999.90;999.90;;;23.80;90.80;;;;;;4941448;29;21197;-66
2023/07/06 11:35:11;;;;;;;1999.90;999.90;;;23.70;91.20;;;;;;4946486;29;20441;-69
2023/07/06 11:37:53;;;;;;;1999.90;999.90;;;23.70;90.70;;;;;;4937286;29;20944;-71
2023/07/06 11:40:41;;;;;;;1999.90;999.90;;;23.60;91.00;;;;;;4939567;29;20465;-69
2023/07/06 11:43:30;;;;;;;1999.90;999.90;;;23.70;90.60;;;;;;4935144;29;20506;-68
2023/07/06 11:46:08;;;;;;;1999.90;999.90;;;23.50;90.40;;;;;;4944992;29;20467;-71
2023/07/06 11:48:45;;;;;;;1999.90;999.90;;;24.30;90.00;;;;;;4946994;29;20506;-72
2023/07/06 11:51:12;;;;;;;1999.90;999.90;;;24.40;90.10;;;;;;4946738;29;20475;-71
2023/07/06 11:53:44;;;;;;;1999.90;999.90;;;24.40;90.20;;;;;;4933078;29;20443;-71
2023/07/06 11:56:32;;;;;;;1999.90;999.90;;;24.90;87.80;;;;;;4942848;29;20443;-71
2023/07/06 11:59:01;;;;;;;1999.90;999.90;;;25.30;86.50;;;;;;4937715;29;20458;-72
2023/07/06 12:01:40;;;;;;;1999.90;999.90;;;25.50;87.30;;;;;;4946047;29;20516;-72
2023/07/06 12:04:13;;;;;;;1999.90;999.90;;;25.30;88.00;;;;;;4944388;29;20435;-71
2023/07/06 12:06:39;;;;;;;1999.90;999.90;;;24.90;90.20;;;;;;4947725;29;20484;-69
2023/07/06 12:09:07;;;;;;;1999.90;999.90;;;24.40;90.60;;;;;;4937395;29;20497;-69
2023/07/06 12:11:35;;;;;;;1999.90;999.90;;;23.90;90.90;;;;;;4938694;29;20435;-67